Latest Weather Observations for Walpole North

IDW60801

Issued at 6:02 pm WST Sunday 14 February 2016 (issued every 30 minutes, with the page automatically refreshed every 10 minutes)

About weather observations | Map of weather stations | Latest weather observations for WA | Other Formats
Station Details ID: 009998 Name: NORTH WALPOLE Lat: -34.95 Lon: 116.72 Height: 73.0 m
Data from the previous 72 hours. | See also: Recent months at Walpole North
Date/Time
WST
Temp
°C
App
Temp
°C
Dew
Point
Rel
Hum
%
Delta-T
°C
Wind Press
QNH
hPa
Press
MSL
hPa
Rain
since 9 am
mm
Dir
 
Spd
km/h
Gust
km/h
Spd
kts
Gust
kts
14/06:00pm 18.3 16.4 11.8 66 3.6 SSE 13 20 7 11 1024.4 1024.2 0.0
14/05:30pm 18.8 16.5 13.0 69 3.3 SSE 17 26 9 14 1024.2 1024.0 0.0
14/05:00pm 20.0 18.5 13.2 65 3.9 SSE 13 24 7 13 1023.9 1023.7 0.0
14/04:30pm 20.2 18.4 13.4 65 3.9 SSE 15 26 8 14 1023.9 1023.7 0.0
14/04:00pm 20.5 18.4 13.5 64 4.0 SSE 17 32 9 17 1024.0 1023.8 0.0
14/03:30pm 20.5 18.0 12.2 59 4.7 SSE 17 35 9 19 1023.9 1023.7 0.0
14/03:00pm 21.1 18.7 12.5 58 4.9 SSE 17 28 9 15 1023.9 1023.7 0.0
14/02:30pm 21.3 18.6 11.6 54 5.4 SSE 17 32 9 17 1024.0 1023.8 0.0
14/02:00pm 21.0 18.0 10.8 52 5.6 SSE 17 30 9 16 1024.0 1023.8 0.0
14/01:30pm 20.6 17.4 9.8 50 5.8 SSE 17 28 9 15 1024.2 1024.0 0.0
14/01:00pm 21.3 19.2 11.1 52 5.6 SSE 13 22 7 12 1024.3 1024.1 0.0
14/12:30pm 20.7 18.6 11.3 55 5.2 SSE 13 26 7 14 1024.5 1024.3 0.0
14/12:00pm 20.6 18.5 11.2 55 5.2 SSE 13 26 7 14 1024.8 1024.6 0.0
14/11:30am 20.1 17.9 10.8 55 5.1 SSE 13 22 7 12 1025.0 1024.8 0.0
14/11:00am 19.8 17.9 10.5 55 5.0 SSE 11 17 6 9 1025.3 1025.1 0.0
14/10:30am 19.9 17.7 10.9 56 4.9 SE 13 19 7 10 1025.3 1025.1 0.0
14/10:00am 19.7 17.6 11.2 58 4.6 SE 13 20 7 11 1025.4 1025.2 0.0
14/09:30am 19.3 17.3 11.6 61 4.3 SE 13 20 7 11 1025.4 1025.2 0.0
14/09:00am 19.0 16.3 11.8 63 4.0 SE 17 26 9 14 1025.5 1025.3 0.0
14/08:30am 18.1 16.7 12.1 68 3.3 SE 11 15 6 8 1025.4 1025.2 0.0
14/08:00am 18.2 16.1 11.3 64 3.7 SE 13 17 7 9 1025.4 1025.2 0.0
14/07:30am 17.6 16.1 11.9 69 3.1 SE 11 17 6 9 1025.3 1025.1 0.0
14/07:00am 16.9 15.4 11.8 72 2.8 SE 11 15 6 8 1025.2 1025.0 0.0
14/06:30am 16.9 15.3 11.4 70 3.0 SE 11 15 6 8 1024.9 1024.7 0.0
14/06:00am 16.5 14.4 9.9 65 3.5 SE 11 15 6 8 1024.6 1024.4 0.0
14/05:30am 16.4 15.0 9.6 64 3.6 SE 7 11 4 6 1024.2 1024.0 0.0
14/05:00am 16.6 14.5 9.8 64 3.6 SE 11 17 6 9 1024.1 1023.9 0.0
14/04:30am 16.6 14.6 10.2 66 3.4 SE 11 15 6 8 1024.0 1023.8 0.0
14/04:00am 16.7 14.9 10.8 68 3.1 ESE 11 15 6 8 1023.8 1023.6 0.0
14/03:30am 16.7 14.6 11.2 70 3.0 ESE 13 17 7 9 1023.8 1023.6 0.0
14/03:00am 16.6 15.0 11.5 72 2.8 SE 11 17 6 9 1023.8 1023.6 0.0
14/02:30am 16.6 15.0 11.5 72 2.8 SE 11 15 6 8 1023.9 1023.7 0.0
14/02:00am 16.6 15.4 11.7 73 2.7 ESE 9 15 5 8 1023.8 1023.6 0.0
14/01:30am 16.6 15.9 12.0 74 2.5 E 7 11 4 6 1023.9 1023.7 0.0
14/01:00am 16.7 15.6 12.0 74 2.6 ESE 9 13 5 7 1024.0 1023.8 0.0
14/12:30am 16.8 15.3 11.9 73 2.7 SE 11 15 6 8 1024.2 1024.0 0.0
14/12:00am 16.8 14.9 11.9 73 2.7 ESE 13 20 7 11 1024.3 1024.1 0.0
 
Date/Time
WST
Temp
°C
App
Temp
°C
Dew
Point
Rel
Hum
%
Delta-T
°C
Wind Press
QNH
hPa
Press
MSL
hPa
Rain
since 9 am
mm
Dir
 
Spd
km/h
Gust
km/h
Spd
kts
Gust
kts
13/11:30pm 16.7 15.1 11.4 71 2.9 ESE 11 17 6 9 1024.5 1024.3 0.0
13/11:00pm 16.7 15.9 11.8 73 2.7 ESE 7 11 4 6 1024.8 1024.6 0.0
13/10:30pm 16.9 14.6 11.8 72 2.8 ESE 15 20 8 11 1025.0 1024.8 0.0
13/10:00pm 17.1 15.5 11.6 70 3.0 SSE 11 17 6 9 1025.1 1024.9 0.0
13/09:30pm 17.1 15.3 10.7 66 3.4 SE 11 15 6 8 1025.1 1024.9 0.0
13/09:00pm 16.9 15.3 11.6 71 2.9 ESE 11 20 6 11 1025.2 1025.0 0.0
13/08:30pm 16.9 15.8 11.8 72 2.8 SE 9 13 5 7 1024.9 1024.7 0.0
13/08:00pm 16.9 15.6 11.2 69 3.1 SE 9 13 5 7 1024.7 1024.5 0.0
13/07:30pm 17.1 15.1 11.6 70 3.0 SE 13 19 7 10 1024.5 1024.3 0.0
13/07:00pm 17.3 15.8 11.8 70 3.0 SSE 11 19 6 10 1024.2 1024.0 0.0
13/06:30pm 17.4 15.2 10.8 65 3.6 SE 13 19 7 10 1023.9 1023.7 0.0
13/06:00pm 17.7 15.2 9.8 60 4.2 SSE 13 20 7 11 1023.8 1023.6 0.0
13/05:30pm 18.1 15.9 9.5 57 4.5 SSE 11 22 6 12 1023.6 1023.4 0.0
13/05:00pm 18.4 16.4 11.5 64 3.8 SSE 13 28 7 15 1023.5 1023.3 0.0
13/04:30pm 18.5 16.2 10.6 60 4.3 SSE 13 24 7 13 1023.5 1023.3 0.0
13/04:00pm 18.5 15.9 10.6 60 4.2 SSE 15 22 8 12 1023.4 1023.2 0.0
13/03:30pm 19.0 17.4 11.6 62 4.1 S 11 19 6 10 1023.6 1023.4 0.0
13/03:00pm 19.2 17.3 11.7 62 4.1 SSE 13 20 7 11 1023.7 1023.5 0.0
13/02:30pm 19.5 17.3 10.8 57 4.7 SSE 13 22 7 12 1023.7 1023.5 0.0
13/02:00pm 20.3 17.5 10.1 52 5.5 SSE 15 28 8 15 1023.9 1023.7 0.0
13/01:30pm 20.3 17.6 10.4 53 5.4 S 15 24 8 13 1024.1 1023.9 0.0
13/01:00pm 19.9 17.3 11.9 60 4.4 S 17 33 9 18 1024.3 1024.1 0.0
13/12:30pm 18.6 16.4 10.7 60 4.3 S 13 26 7 14 1024.4 1024.2 0.0
13/12:00pm 18.3 16.1 10.7 61 4.1 SSE 13 20 7 11 1024.6 1024.4 0.0
13/11:30am 18.2 16.6 11.5 65 3.7 SSE 11 20 6 11 1024.7 1024.5 0.0
13/11:00am 19.3 17.3 11.6 61 4.2 S 13 26 7 14 1024.9 1024.7 0.0
13/10:30am 18.6 16.8 10.7 60 4.3 SSE 11 19 6 10 1024.9 1024.7 0.0
13/10:00am 18.2 16.2 10.1 59 4.3 S 11 19 6 10 1025.0 1024.8 0.0
13/09:30am 17.8 15.6 9.4 58 4.4 SSE 11 20 6 11 1024.9 1024.7 0.0
13/09:00am 18.1 15.9 9.5 57 4.5 SSE 11 17 6 9 1024.8 1024.6 0.0
13/08:30am 17.4 15.0 8.8 57 4.5 SSE 11 22 6 12 1024.6 1024.4 0.0
13/08:00am 17.2 15.5 9.9 62 3.8 S 9 17 5 9 1024.4 1024.2 0.0
13/07:30am 17.2 14.0 8.6 57 4.4 S 15 28 8 15 1024.2 1024.0 0.0
13/07:00am 16.9 14.0 9.8 63 3.7 S 15 28 8 15 1023.8 1023.6 0.0
13/06:30am 16.4 13.7 9.1 62 3.8 SSW 13 20 7 11 1023.5 1023.3 0.0
13/06:00am 16.3 13.3 9.3 63 3.6 SSW 15 22 8 12 1023.2 1023.0 0.0
13/05:30am 16.5 12.8 10.1 66 3.4 SSW 20 26 11 14 1022.7 1022.4 0.0
13/05:00am 16.5 14.7 10.8 69 3.0 SW 11 19 6 10 1022.3 1022.0 0.0
13/04:30am 16.5 13.8 9.0 61 3.9 SSW 13 24 7 13 1022.1 1021.8 0.0
13/04:00am 16.4 14.6 9.3 63 3.7 SW 9 13 5 7 1021.7 1021.4 0.0
13/03:30am 16.2 13.6 9.2 63 3.6 SSW 13 20 7 11 1021.7 1021.4 0.0
13/03:00am 15.7 14.4 10.0 69 3.0 SSW 7 13 4 7 1021.6 1021.3 0.0
13/02:30am 15.1 14.0 9.9 71 2.7 WSW 6 9 3 5 1021.4 1021.1 0.0
13/02:00am 15.0 13.8 10.4 74 2.4 SW 7 13 4 7 1021.4 1021.1 0.0
13/01:30am 14.5 13.1 9.7 73 2.5 SW 7 15 4 8 1021.4 1021.1 0.0
13/01:00am 15.5 13.7 9.6 68 3.1 SW 9 13 5 7 1021.4 1021.1 0.0
13/12:30am 16.2 14.6 10.1 67 3.2 SSW 9 15 5 8 1021.6 1021.3 0.0
13/12:00am 16.7 14.5 10.8 68 3.2 SSW 13 20 7 11 1021.6 1021.3 0.0
 
Date/Time
WST
Temp
°C
App
Temp
°C
Dew
Point
Rel
Hum
%
Delta-T
°C
Wind Press
QNH
hPa
Press
MSL
hPa
Rain
since 9 am
mm
Dir
 
Spd
km/h
Gust
km/h
Spd
kts
Gust
kts
12/11:30pm 16.9 15.1 11.0 68 3.2 SW 11 17 6 9 1021.6 1021.3 0.0
12/11:00pm 17.2 15.6 11.5 69 3.1 SW 11 19 6 10 1021.6 1021.3 0.0
12/10:30pm 17.4 16.0 12.1 71 2.9 SSW 11 24 6 13 1021.6 1021.3 0.0
12/10:00pm 17.5 15.5 12.8 74 2.6 SSW 15 22 8 12 1021.6 1021.3 0.0
12/09:30pm 17.7 15.9 13.2 75 2.5 SSW 15 22 8 12 1021.7 1021.4 0.0
12/09:00pm 17.8 16.8 13.5 76 2.4 SSW 11 22 6 12 1021.4 1021.1 0.0
12/08:30pm 17.6 16.4 14.1 80 2.0 SSW 13 22 7 12 1021.1 1020.8 0.0
12/08:00pm 17.5 16.1 14.6 83 1.7 SSW 15 28 8 15 1020.8 1020.5 0.0
12/07:30pm 18.0 17.3 14.3 79 2.1 SSW 11 24 6 13 1020.5 1020.2 0.0
12/07:00pm 18.0 17.7 14.5 80 2.0 SW 9 19 5 10 1020.2 1019.9 0.0
12/06:30pm 18.5 17.4 15.4 82 1.8 SSW 15 22 8 12 1020.0 1019.7 0.0
12/06:00pm 19.3 17.8 15.2 77 2.4 SSW 17 30 9 16 1019.5 1019.3 0.0
12/05:30pm 19.2 17.3 15.3 78 2.3 S 19 32 10 17 1019.2 1019.0 0.0
12/05:00pm 19.1 17.7 17.1 88 1.2 SSW 20 30 11 16 1018.9 1018.7 0.0
12/04:30pm 20.9 20.0 16.9 78 2.4 SSW 17 30 9 16 1018.6 1018.4 0.0
12/04:00pm 21.4 21.3 15.9 71 3.3 SW 11 32 6 17 1018.4 1018.2 0.0
12/03:30pm 23.0 22.2 17.0 69 3.7 SW 17 24 9 13 1018.1 1017.9 0.0
12/03:00pm 21.9 21.2 17.3 75 2.8 SW 17 28 9 15 1018.2 1018.0 0.0
12/02:30pm 23.4 21.9 16.7 66 4.1 SW 20 32 11 17 1018.1 1017.9 0.0
12/02:00pm 23.1 21.2 15.2 61 4.7 SW 19 28 10 15 1018.1 1017.9 0.0
12/01:30pm 23.8 22.8 16.6 64 4.4 W 17 24 9 13 1018.2 1018.0 0.0
12/01:00pm 23.5 22.2 15.8 62 4.7 WSW 17 24 9 13 1018.6 1018.4 0.0
12/12:30pm 23.3 21.8 15.4 61 4.7 WSW 17 28 9 15 1018.7 1018.5 0.0
12/12:00pm 22.8 22.0 15.1 62 4.6 WSW 13 24 7 13 1018.7 1018.5 0.0
12/11:30am 22.2 21.4 15.1 64 4.2 SW 13 19 7 10 1018.9 1018.7 0.0
12/11:00am 23.3 22.3 15.6 62 4.6 SSW 15 24 8 13 1019.0 1018.8 0.0
12/10:30am 22.8 22.9 15.6 64 4.3 WSW 9 19 5 10 1018.9 1018.7 0.0
12/10:00am 21.2 21.5 15.1 68 3.6 SSW 7 13 4 7 1018.6 1018.4 0.0
12/09:30am 20.1 20.3 14.7 71 3.2 WNW 7 15 4 8 1018.5 1018.3 0.0
12/09:00am 19.9 20.0 14.5 71 3.1 SW 7 15 4 8 1018.7 1018.5 0.0
12/08:30am 19.6 19.4 14.6 73 2.9 SW 9 15 5 8 1018.6 1018.4 0.0
12/08:00am 18.9 17.9 14.6 76 2.5 WSW 13 24 7 13 1018.4 1018.2 0.0
12/07:30am 18.9 18.9 15.2 79 2.2 SW 9 13 5 7 1018.0 1017.8 0.0
12/07:00am 18.0 19.6 14.9 82 1.8 CALM 0 7 0 4 1017.8 1017.6 0.0
12/06:30am 16.6 17.9 14.1 85 1.4 CALM 0 0 0 0 1017.4 1017.2 0.0
12/06:00am 16.7 16.7 14.2 85 1.4 SW 7 9 4 5 1017.1 1016.9 0.0
12/05:30am 17.0 16.9 13.9 82 1.8 SW 7 11 4 6 1016.8 1016.6 0.0
12/05:00am 17.6 18.1 14.9 84 1.6 SW 6 11 3 6 1016.4 1016.2 0.0
12/04:30am 17.8 17.8 15.2 85 1.5 SW 9 15 5 8 1016.0 1015.8 0.0
12/04:00am 17.7 17.4 15.5 87 1.3 SW 11 19 6 10 1015.7 1015.5 0.0
12/03:30am 17.7 18.3 15.7 88 1.2 SW 7 13 4 7 1015.5 1015.3 0.0
12/03:00am 17.8 18.1 16.1 90 1.0 SW 9 20 5 11 1015.5 1015.3 0.0
12/02:30am 17.6 18.2 15.8 89 1.1 WSW 7 11 4 6 1015.3 1015.1 0.0
12/02:00am 17.7 18.4 15.5 87 1.3 WSW 6 11 3 6 1015.3 1015.1 0.0
12/01:30am 18.2 18.4 15.8 86 1.4 WSW 9 13 5 7 1015.5 1015.3 0.0
12/01:00am 18.4 19.3 16.0 86 1.4 WSW 6 11 3 6 1015.4 1015.2 0.0
12/12:30am 18.4 19.1 16.2 87 1.3 SW 7 11 4 6 1015.7 1015.5 0.0
12/12:00am 18.3 19.3 16.3 88 1.2 WSW 6 9 3 5 1015.9 1015.7 0.0
 
Date/Time
WST
Temp
°C
App
Temp
°C
Dew
Point
Rel
Hum
%
Delta-T
°C
Wind Press
QNH
hPa
Press
MSL
hPa
Rain
since 9 am
mm
Dir
 
Spd
km/h
Gust
km/h
Spd
kts
Gust
kts
11/11:30pm 18.3 19.9 17.0 92 0.8 SSW 4 9 2 5 1016.0 1015.8 0.0
11/11:00pm 18.4 20.8 17.1 92 0.8 CALM 0 0 0 0 1015.9 1015.7 0.0
11/10:30pm 18.5 20.9 17.0 91 0.9 CALM 0 0 0 0 1015.9 1015.7 0.0
11/10:00pm 18.7 21.1 17.0 90 1.0 CALM 0 0 0 0 1015.8 1015.6 0.0
11/09:30pm 18.5 20.2 17.2 92 0.8 SE 4 9 2 5 1015.7 1015.5 0.0
11/09:00pm 18.3 19.8 18.0 98 0.2 SE 7 9 4 5 1015.6 1015.4 0.0
11/08:30pm 18.3 19.8 17.5 95 0.5 SE 6 9 3 5 1015.4 1015.2 0.0
11/08:00pm 18.5 19.9 17.7 95 0.5 SSE 7 13 4 7 1015.2 1015.0 0.0
11/07:30pm 18.7 19.8 17.9 95 0.5 SSE 9 15 5 8 1014.8 1014.6 0.0
11/07:00pm 19.3 19.9 17.8 91 0.9 SSE 11 19 6 10 1014.2 1014.0 0.0
11/06:30pm 20.0 20.4 17.2 84 1.7 SSE 11 20 6 11 1013.8 1013.6 0.0

Other Formats:

Comma delimited format used in spreadsheet applications
http://www.bom.gov.au/fwo/IDW60801/IDW60801.95647.axf

JavaScript Object Notation format (JSON) in row-major order
http://www.bom.gov.au/fwo/IDW60801/IDW60801.95647.json